Terminal Aerodrome Forecast
Issued by NWS Sterling, VA

Home | Current Version | Previous Version | Text Only | Print | Product List | Glossary On
Versions: 1 2 3 4 5 6 7 8 9 10 11 12 13 14 15 16 17 18 19 20 21 22 23 24 25 26 27 28 29
182
FTUS41 KLWX 241453 AAA
TAFIAD
TAF AMD
KIAD 241453Z 2415/2518 VRB03KT 1SM BR VCSH OVC003
      TEMPO 2415/2418 1/2SM FG
     FM241800 07005KT 1 1/2SM -SHRA BR OVC008
     FM250600 09006KT 1/2SM -SHRADZ FG OVC003
     FM251100 15007KT 1/4SM -SHRADZ FG OVC003
     FM251300 18008KT 2SM -SHRA BR OVC008
     FM251500 19009KT 3SM -SHRA OVC015=

USA.gov is the U.S. government's official web portal to all federal, state and local government web resources and services.